createdAt,value
2018-07-25T00:08:57.373Z,11.23
2018-07-25T00:11:39.533Z,10.45
2018-07-25T00:14:14.865Z,11.90
2018-07-25T00:16:50.045Z,9.90
2018-07-25T00:21:58.855Z,11.30
2018-07-25T00:33:09.275Z,14.35
2018-07-25T00:35:56.988Z,14.67
2018-07-25T00:38:33.096Z,17.57
2018-07-25T00:41:05.717Z,15.40
2018-07-25T00:43:49.477Z,16.20
2018-07-25T00:46:23.568Z,16.20
2018-07-25T00:58:14.557Z,19.35
2018-07-25T01:01:01.145Z,17.70
2018-07-25T01:03:37.414Z,18.20
2018-07-25T01:12:22.447Z,20.80
2018-07-25T01:15:03.804Z,21.10
2018-07-25T01:17:41.893Z,22.73
2018-07-25T01:20:24.040Z,23.20
2018-07-25T01:23:15.669Z,24.50
2018-07-25T01:25:49.640Z,25.00
2018-07-25T01:28:35.990Z,23.67
2018-07-25T01:31:11.134Z,22.83
2018-07-25T01:34:01.478Z,24.83
2018-07-25T01:36:57.058Z,25.73
2018-07-25T01:44:54.638Z,26.20
2018-07-25T01:47:27.386Z,25.53
2018-07-25T01:50:00.905Z,26.07
2018-07-25T01:52:36.560Z,24.70
2018-07-25T01:55:12.440Z,23.05
2018-07-25T01:57:47.018Z,24.00
2018-07-25T02:00:22.308Z,22.90
2018-07-25T02:05:47.291Z,23.13
2018-07-25T02:08:26.798Z,24.37
2018-07-25T02:11:03.302Z,23.50
2018-07-25T02:13:42.150Z,24.27
2018-07-25T02:16:16.678Z,25.20
2018-07-25T02:18:51.308Z,26.50
2018-07-25T02:21:25.586Z,25.30
2018-07-25T02:24:01.851Z,25.30
2018-07-25T02:26:35.657Z,24.75
2018-07-25T02:29:23.429Z,27.20
2018-07-25T02:31:58.849Z,22.00
2018-07-25T02:34:31.552Z,14.45
2018-07-25T02:37:04.263Z,14.30
2018-07-25T02:42:11.582Z,12.60
2018-07-25T02:44:46.150Z,10.60
2018-07-25T02:47:22.108Z,8.95
2018-07-25T02:49:54.823Z,12.10
2018-07-25T02:52:27.420Z,10.60
2018-07-25T02:55:00.397Z,10.30
2018-07-25T02:57:34.084Z,11.20
2018-07-25T03:00:09.010Z,10.50
2018-07-25T03:02:41.446Z,10.10
2018-07-25T03:05:15.284Z,10.55
2018-07-25T03:07:47.917Z,11.90
2018-07-25T03:10:20.532Z,13.90
2018-07-25T03:12:53.259Z,22.00
2018-07-25T03:15:26.174Z,15.10
2018-07-25T03:18:01.728Z,19.00
2018-07-25T03:20:34.432Z,22.60
2018-07-25T03:23:07.872Z,18.47
2018-07-25T03:25:40.498Z,19.90
2018-07-25T03:28:14.448Z,22.20
2018-07-25T03:30:50.681Z,22.10
2018-07-25T03:33:23.526Z,25.30
2018-07-25T03:35:56.936Z,23.40
2018-07-25T03:38:30.568Z,25.03
2018-07-25T03:41:02.977Z,25.80
2018-07-25T03:43:35.551Z,16.97
2018-07-25T03:46:08.070Z,13.83
2018-07-25T03:48:41.728Z,11.55
2018-07-25T03:51:14.898Z,11.30
2018-07-25T03:53:47.559Z,9.80
2018-07-25T03:56:19.963Z,9.50
2018-07-25T03:58:52.540Z,9.33
2018-07-25T04:01:25.461Z,10.70
2018-07-25T04:03:57.794Z,10.90
2018-07-25T04:06:30.091Z,10.63
2018-07-25T04:09:06.056Z,9.77
2018-07-25T04:11:38.646Z,10.10
2018-07-25T04:14:12.252Z,11.40
2018-07-25T04:16:44.794Z,10.10
2018-07-25T04:19:18.126Z,11.83
2018-07-25T04:21:51.585Z,12.27
2018-07-25T04:24:24.567Z,10.60
2018-07-25T04:26:56.851Z,11.25
2018-07-25T04:29:32.987Z,11.73
2018-07-25T04:32:05.736Z,11.65
2018-07-25T04:34:38.911Z,11.75
2018-07-25T04:37:11.164Z,10.85
2018-07-25T04:39:43.346Z,10.80
2018-07-25T04:42:15.591Z,11.85
2018-07-25T04:44:48.120Z,10.10
2018-07-25T04:47:20.186Z,11.30
2018-07-25T04:49:53.804Z,11.45
2018-07-25T04:52:26.179Z,10.20
2018-07-25T04:54:58.601Z,11.80
2018-07-25T04:57:31.084Z,11.20
2018-07-25T05:00:03.497Z,9.80
2018-07-25T05:02:35.766Z,9.65
2018-07-25T05:05:08.403Z,10.95
2018-07-25T05:07:40.716Z,9.73
2018-07-25T05:10:13.329Z,10.00
2018-07-25T05:12:45.618Z,10.25
2018-07-25T05:15:17.836Z,9.90
2018-07-25T05:17:50.589Z,9.90
2018-07-25T05:20:24.697Z,9.60
2018-07-25T05:22:58.083Z,10.20
2018-07-25T05:25:30.911Z,10.93
2018-07-25T05:28:03.338Z,9.40
2018-07-25T05:30:36.821Z,10.40
2018-07-25T05:33:09.238Z,10.30
2018-07-25T05:35:41.610Z,10.30
2018-07-25T05:38:14.041Z,10.40
2018-07-25T05:40:46.492Z,9.40
2018-07-25T05:43:18.695Z,10.90
2018-07-25T05:45:50.876Z,11.40
2018-07-25T05:48:23.076Z,9.85
2018-07-25T05:51:27.756Z,10.05
2018-07-25T05:56:30.839Z,10.40
2018-07-25T05:59:03.410Z,10.95
2018-07-25T06:04:06.344Z,11.75
2018-07-25T06:06:38.793Z,10.20
2018-07-25T06:09:12.669Z,10.70
2018-07-25T06:11:45.674Z,10.00
2018-07-25T06:14:18.545Z,12.10
2018-07-25T06:16:51.831Z,11.80
2018-07-25T06:21:55.322Z,9.80
2018-07-25T06:24:27.449Z,11.10
2018-07-25T06:26:59.943Z,11.45
2018-07-25T06:29:33.395Z,11.15
2018-07-25T06:34:40.073Z,12.05
2018-07-25T06:39:44.391Z,13.00
2018-07-25T06:42:16.815Z,13.30
2018-07-25T06:44:49.225Z,13.80
2018-07-25T06:47:21.588Z,14.05
2018-07-25T06:49:53.768Z,14.05
2018-07-25T06:52:27.717Z,12.70
2018-07-25T06:54:59.802Z,14.20
2018-07-25T06:57:32.193Z,12.20
2018-07-25T07:00:04.772Z,12.00
2018-07-25T07:30:16.485Z,13.10
2018-07-25T07:35:21.005Z,12.30
2018-07-25T07:53:06.320Z,12.60
2018-07-25T07:55:38.580Z,11.30
2018-07-25T07:58:11.263Z,11.90
2018-07-25T08:00:44.423Z,12.53
2018-07-25T08:03:17.271Z,12.07
2018-07-25T08:05:49.532Z,12.33
2018-07-25T08:08:21.898Z,12.10
2018-07-25T08:10:54.449Z,12.30
2018-07-25T08:14:03.457Z,13.27
2018-07-25T08:16:36.749Z,12.20
2018-07-25T08:19:09.122Z,12.10
2018-07-25T08:21:41.395Z,14.30
2018-07-25T08:24:13.797Z,11.63
2018-07-25T08:26:46.215Z,13.17
2018-07-25T08:29:18.590Z,14.07
2018-07-25T08:31:51.840Z,13.80
2018-07-25T08:34:25.128Z,12.90
2018-07-25T08:36:57.543Z,12.50
2018-07-25T08:39:29.926Z,13.53
2018-07-25T08:42:02.219Z,11.63
2018-07-25T08:44:34.617Z,13.50
2018-07-25T08:47:07.111Z,14.43
2018-07-25T08:49:39.882Z,13.17
2018-07-25T08:52:12.179Z,13.47
2018-07-25T08:54:45.322Z,13.53
2018-07-25T08:57:17.621Z,12.83
2018-07-25T08:59:50.505Z,13.57
2018-07-25T09:02:23.102Z,13.73
2018-07-25T09:04:55.587Z,15.27
2018-07-25T09:07:27.800Z,12.83
2018-07-25T09:09:59.962Z,14.90
2018-07-25T09:12:31.980Z,15.33
2018-07-25T09:15:06.417Z,12.20
2018-07-25T09:17:38.570Z,12.90
2018-07-25T09:20:10.832Z,13.80
2018-07-25T09:22:42.934Z,13.97
2018-07-25T09:25:15.834Z,13.80
2018-07-25T09:27:48.104Z,14.40
2018-07-25T09:30:21.326Z,12.90
2018-07-25T09:32:54.363Z,14.63
2018-07-25T09:35:26.802Z,13.03
2018-07-25T09:37:59.159Z,14.10
2018-07-25T09:40:31.954Z,12.50
2018-07-25T09:43:04.205Z,14.33
2018-07-25T09:45:36.895Z,13.20
2018-07-25T09:48:09.527Z,12.87
2018-07-25T09:50:41.928Z,13.10
2018-07-25T09:53:14.459Z,12.83
2018-07-25T09:55:47.403Z,13.50
2018-07-25T09:58:21.275Z,13.77
2018-07-25T10:00:54.151Z,13.87
2018-07-25T10:03:26.532Z,13.83
2018-07-25T10:05:58.796Z,13.37
2018-07-25T10:08:30.998Z,13.37
2018-07-25T10:11:03.424Z,13.33
2018-07-25T10:13:35.649Z,14.33
2018-07-25T10:16:08.335Z,16.50
2018-07-25T10:18:40.533Z,15.77
2018-07-25T10:21:12.962Z,18.37
2018-07-25T10:23:45.694Z,17.67
2018-07-25T10:26:18.241Z,15.97
2018-07-25T10:28:50.668Z,12.93
2018-07-25T10:31:23.082Z,15.30
2018-07-25T10:33:55.568Z,18.67
2018-07-25T10:36:28.928Z,15.60
2018-07-25T10:39:01.236Z,15.03
2018-07-25T10:41:33.868Z,15.40
2018-07-25T10:44:06.092Z,15.23
2018-07-25T10:46:37.134Z,14.47
2018-07-25T10:49:09.309Z,16.33
2018-07-25T10:51:41.681Z,14.53
2018-07-25T10:54:13.916Z,15.07
2018-07-25T10:56:46.348Z,15.27
2018-07-25T10:59:18.470Z,17.10
2018-07-25T11:01:51.405Z,17.33
2018-07-25T11:04:24.897Z,17.27
2018-07-25T11:06:58.045Z,19.27
2018-07-25T11:09:30.321Z,20.80
2018-07-25T11:12:03.259Z,21.40
2018-07-25T11:14:35.761Z,24.37
2018-07-25T11:17:08.986Z,23.50
2018-07-25T11:19:42.378Z,29.70
2018-07-25T11:22:13.268Z,26.97
2018-07-25T11:24:45.460Z,26.47
2018-07-25T11:27:17.996Z,24.47
2018-07-25T11:29:50.407Z,41.07
2018-07-25T11:32:22.972Z,30.30
2018-07-25T11:34:55.326Z,24.63
2018-07-25T11:37:29.729Z,23.70
2018-07-25T11:40:02.332Z,21.15
2018-07-25T11:42:34.849Z,19.43
2018-07-25T11:45:12.446Z,17.57
2018-07-25T11:47:44.944Z,18.43
2018-07-25T11:50:17.849Z,21.30
2018-07-25T11:52:50.986Z,18.77
2018-07-25T11:55:23.359Z,20.53
2018-07-25T11:57:58.697Z,21.00
2018-07-25T12:00:31.271Z,21.37
2018-07-25T12:03:06.252Z,20.30
2018-07-25T12:05:40.681Z,20.53
2018-07-25T12:12:03.052Z,22.93
2018-07-25T12:14:36.766Z,24.60
2018-07-25T12:17:11.083Z,25.20
2018-07-25T12:19:51.604Z,27.87
2018-07-25T12:22:24.642Z,23.40
2018-07-25T12:24:56.923Z,19.90
2018-07-25T12:27:29.305Z,19.93
2018-07-25T12:30:02.800Z,24.03
2018-07-25T12:32:35.596Z,25.13
2018-07-25T12:35:10.338Z,23.83
2018-07-25T12:37:42.418Z,23.57
2018-07-25T12:40:16.995Z,22.57
2018-07-25T12:42:49.996Z,20.67
2018-07-25T12:45:22.441Z,20.67
2018-07-25T12:47:54.944Z,20.97
2018-07-25T12:50:27.816Z,21.83
2018-07-25T12:53:00.097Z,19.43
2018-07-25T12:55:33.068Z,20.87
2018-07-25T12:58:06.049Z,22.90
2018-07-25T13:00:38.699Z,25.83
2018-07-25T13:03:11.926Z,25.70
2018-07-25T13:05:44.243Z,26.53
2018-07-25T13:08:16.761Z,30.97
2018-07-25T13:10:49.243Z,20.23
2018-07-25T13:13:21.853Z,21.90
2018-07-25T13:15:54.738Z,16.57
2018-07-25T13:18:27.041Z,17.67
2018-07-25T13:21:00.137Z,18.80
2018-07-25T13:23:32.352Z,15.97
2018-07-25T13:26:04.878Z,14.37
2018-07-25T13:28:36.329Z,15.47
2018-07-25T13:31:07.526Z,12.57
2018-07-25T13:33:41.025Z,17.03
2018-07-25T13:36:14.069Z,13.00
2018-07-25T13:38:47.095Z,12.70
2018-07-25T13:41:20.181Z,13.93
2018-07-25T13:43:52.942Z,14.57
2018-07-25T13:46:26.753Z,15.40
2018-07-25T13:48:59.319Z,14.13
2018-07-25T13:51:32.526Z,12.63
2018-07-25T13:54:05.446Z,11.07
2018-07-25T13:56:37.623Z,11.07
2018-07-25T13:59:09.917Z,13.07
2018-07-25T14:01:44.083Z,12.00
2018-07-25T14:04:16.236Z,9.57
2018-07-25T14:06:48.496Z,10.60
2018-07-25T14:09:20.523Z,11.83
2018-07-25T14:11:53.609Z,12.33
2018-07-25T14:14:26.503Z,12.83
2018-07-25T14:16:59.803Z,11.63
2018-07-25T14:19:31.894Z,11.00
2018-07-25T14:22:06.592Z,12.73
2018-07-25T14:24:39.787Z,11.67
2018-07-25T14:27:12.840Z,11.27
2018-07-25T14:29:45.177Z,12.43
2018-07-25T14:32:23.352Z,11.33
2018-07-25T15:00:48.562Z,10.47
2018-07-25T15:03:43.046Z,8.33
2018-07-25T15:06:21.022Z,9.47
2018-07-25T16:22:53.896Z,11.13
2018-07-25T17:06:47.271Z,8.93
2018-07-25T17:09:32.887Z,10.00
2018-07-25T17:15:05.767Z,10.78
2018-07-25T17:17:40.436Z,8.60
2018-07-25T17:20:15.963Z,8.78
2018-07-25T17:25:33.466Z,9.08
2018-07-25T17:28:18.981Z,7.05
2018-07-25T17:30:54.948Z,9.30
2018-07-25T17:33:32.281Z,7.87
2018-07-25T17:36:10.240Z,7.95
2018-07-25T17:38:44.693Z,6.83
2018-07-25T17:41:18.325Z,8.20
2018-07-25T17:43:54.640Z,5.65
2018-07-25T17:46:29.207Z,9.05
2018-07-25T17:49:02.623Z,12.18
2018-07-25T17:51:36.778Z,7.03
2018-07-25T17:54:16.241Z,7.65
2018-07-25T18:02:46.061Z,9.30
2018-07-25T18:08:04.585Z,6.95
2018-07-25T18:10:47.537Z,8.45
2018-07-25T18:13:30.622Z,7.92
2018-07-25T18:16:05.972Z,5.87
2018-07-25T18:18:49.787Z,6.08
2018-07-25T18:21:32.308Z,8.18
2018-07-25T18:27:06.747Z,6.12
2018-07-25T18:29:44.188Z,11.63
2018-07-25T18:32:48.848Z,8.08
2018-07-25T18:35:21.639Z,8.93
2018-07-25T18:37:54.711Z,6.42
2018-07-25T18:43:13.924Z,8.00
2018-07-25T18:48:30.744Z,6.58
2018-07-25T18:51:04.435Z,8.80
2018-07-25T18:53:41.220Z,12.55
2018-07-25T18:56:22.488Z,7.78
2018-07-25T18:58:59.180Z,7.97
2018-07-25T19:01:37.964Z,7.95
2018-07-25T19:04:12.124Z,7.35
2018-07-25T19:06:50.943Z,11.95
2018-07-25T19:09:30.386Z,9.58
2018-07-25T19:12:08.587Z,10.35
2018-07-25T19:14:57.025Z,7.47
2018-07-25T19:17:33.590Z,17.07
2018-07-25T19:20:17.557Z,10.68
2018-07-25T19:22:57.757Z,10.18
2018-07-25T19:25:37.652Z,8.80
2018-07-25T19:28:12.341Z,11.88
2018-07-25T19:30:47.363Z,7.65
2018-07-25T19:36:02.782Z,5.92
2018-07-25T19:38:36.768Z,8.93
2018-07-25T19:41:12.672Z,8.23
2018-07-25T19:43:44.876Z,7.90
2018-07-25T19:46:21.221Z,10.73
2018-07-25T19:48:55.249Z,8.63
2018-07-25T19:51:30.772Z,7.58
2018-07-25T19:54:10.104Z,7.30
2018-07-25T19:56:44.584Z,9.03
2018-07-25T19:59:21.758Z,7.15
2018-07-25T20:02:00.434Z,7.78
2018-07-25T20:04:35.236Z,16.82
2018-07-25T20:07:07.725Z,5.58
2018-07-25T20:09:41.309Z,8.60
2018-07-25T20:12:13.989Z,6.75
2018-07-25T20:17:35.285Z,6.12
2018-07-25T20:20:09.443Z,5.20
2018-07-25T20:22:43.094Z,12.75
2018-07-25T20:25:15.965Z,6.37
2018-07-25T20:27:54.627Z,5.40
2018-07-25T20:30:36.004Z,5.92
2018-07-25T20:33:11.789Z,5.10
2018-07-25T20:35:44.695Z,6.78
2018-07-25T20:38:20.072Z,5.95
2018-07-25T20:40:53.793Z,5.87
2018-07-25T20:43:29.661Z,6.17
2018-07-25T20:46:04.873Z,6.47
2018-07-25T20:48:44.556Z,6.55
2018-07-25T20:54:04.501Z,6.70
2018-07-25T20:56:41.002Z,24.77
2018-07-25T20:59:24.124Z,5.87
2018-07-25T21:02:06.915Z,5.22
2018-07-25T21:04:44.522Z,6.90
2018-07-25T21:07:26.373Z,6.03
2018-07-25T21:10:20.884Z,7.17
2018-07-25T21:12:58.869Z,5.95
2018-07-25T21:15:43.579Z,7.55
2018-07-25T21:18:23.549Z,5.65
2018-07-25T21:21:14.466Z,5.87
2018-07-25T21:23:46.841Z,6.53
2018-07-25T21:26:28.142Z,5.92
2018-07-25T21:29:14.189Z,5.12
2018-07-25T21:31:56.442Z,8.38
2018-07-25T21:34:28.841Z,7.28
2018-07-25T21:39:47.596Z,5.90
2018-07-25T21:42:25.875Z,6.70
2018-07-25T21:44:59.133Z,6.20
2018-07-25T21:48:08.276Z,6.05
2018-07-25T21:51:03.326Z,9.03
2018-07-25T22:13:43.792Z,7.65
2018-07-25T22:16:37.754Z,6.37
2018-07-25T22:24:55.333Z,5.33
2018-07-25T22:27:33.683Z,6.17
2018-07-25T22:30:07.117Z,7.45
2018-07-25T22:32:53.790Z,6.47
2018-07-25T22:35:40.523Z,17.80
2018-07-25T22:41:43.773Z,7.10
2018-07-25T22:44:27.972Z,6.33
2018-07-25T22:47:39.145Z,6.53
2018-07-25T22:50:16.243Z,8.37
2018-07-25T22:52:51.009Z,7.90
2018-07-25T22:55:32.913Z,8.40
2018-07-25T22:58:24.667Z,7.83
2018-07-25T23:01:07.498Z,7.53
2018-07-25T23:03:56.568Z,11.63
2018-07-25T23:06:30.667Z,11.80
2018-07-25T23:09:03.720Z,10.90
2018-07-25T23:11:38.592Z,8.80
2018-07-25T23:14:21.027Z,8.47
2018-07-25T23:20:00.719Z,8.07
2018-07-25T23:22:44.834Z,8.80
2018-07-25T23:25:20.408Z,8.00
2018-07-25T23:30:56.624Z,12.40
2018-07-25T23:33:31.207Z,7.50
2018-07-25T23:36:04.142Z,8.70
2018-07-25T23:39:01.798Z,9.80
2018-07-25T23:41:35.894Z,9.35
2018-07-25T23:44:12.365Z,8.90
2018-07-25T23:47:09.606Z,11.60
2018-07-25T23:55:19.171Z,9.70
